Airfield :
LOGIN :

Register | Disclaimer

   EN    FR    IT 

 










Legend :    VFR   Marginal VFR   IFR   Intensive IFR   Very Intensive IFR
Visi :
Ceiling :
>= 8 km
>= 3000ft
5 to 8 km
1000 to 3000 ft
1500m to 5 km
500 to 1000 ft
800 to 1500m
200 to 500 ft
< 800m
< 200 ft
Symbols :   Thunderstorms  Fog  Heavy snow  Heavy precipitations  Wind > 20 kt
SIGMETs :     Misc.  Thunderstorms  Icing  Turbulence  Mountain Waves  Volcanic Ashes







- Airport Elevation : 268 ft
- IATA code : BFS
- Download approach charts


EGAA - Belfast Aldergrove

CURRENT METAR :
  • 281150Z 24007KT 200V270 9999 FEW029 BKN043 10/03 Q1016

EXPIRED METARs :
  • 281120Z 24007KT 9999 BKN040 10/04 Q1017
  • 281020Z 24006KT 190V290 9999 SCT027 BKN040 10/03 Q1017
  • 280950Z VRB02KT 9999 SCT025 BKN045 09/04 Q1017
  • 280920Z VRB04KT 9999 FEW021 BKN044 09/04 Q1017

TAF TAF EGAA
Valid from the 28 at 12:00 until the 29 at 12:00 UTC


281102Z 2812/2912 24005KT 9999 BKN035
BECMG 2904/2908 16010KT
No reported NOTAMs for that airfield.



MET'MAP, your aeronautical weather chart ! - Copyright ORBIFLY December 2007 - Disclaimer

ORBIFLY MET'MAP TEAM :

Programming & Development : Alexandra Zaïnal
Concept & Development : Baudouin d'Aumeries
Co-Development & Prog : Marc-Olivier Méhu
Technical & hardware support : Manuel Goepfert

Contact : metmap@orbifly.com




SOURCES & CREDITS :

   NOAA